Pagina principale
METAR-TAF:

METAR-TAF

Aeroporti :

Rundu, Namibia

latitudine: 17-57-20S, longitudine: 019-43-25E, altezza: 1106 m

Osservazione

Il bollettino è stato emesso 45 minuti fa, alle 17:00 UTC
Vento 2 kt da est
Temperature 23°C
Umidità 25%
Pressione 1025 hPa

METAR: FYRU 311700Z AUTO 09002KT //// // ////// 23/02 Q1025

Ora: 19:45 (17:45 UTC)

Previsione

Il bollettino è stato emesso 45 minuti fa, alle 17:00 UTC
Previsione valida dal 31 alle 18 UTC al 01 alle 03 UTC
Vento 3 kt da est
Visibilità 10 km o più
nessuna nube inferiore a 1500 m e nessun cumulonembo

TAF: FYRU 311700Z 3118/0103 09003KT CAVOK

Osservazioni e previsioni meteorologiche di più di 4000 aeroporti (messaggi METAR e TAF).

Le stazioni disponibili sono rappresentate dai dischi gialli e rossi sulla carta.

Puntare il mouse per vedere il nome della stazione.

Clicca sopra per visualizzare le osservazioni e previsioni meteorologiche.

Per cambiare la mappa : fare clic sui pulsanti verdi con una croce nera per ingrandire, il pulsante verde con un trattino per diminuire, o sulla freccia verde per le mappe adiacenti.


METAR-TAF: